Terminal Aerodrome Forecast
Issued by NWS Mt. Holly, NJ

Home | Current Version | Previous Version | Text Only | Print | Product List | Glossary On
Versions: 1 2 3 4 5 6 7 8 9 10 11 12 13 14 15 16 17 18 19 20 21 22 23
000
FTUS41 KPHI 261921 AAA
TAFACY
TAF AMD
KACY 261921Z 2619/2718 12007KT P6SM BKN035
     FM262100 12007KT P6SM BKN050 BKN250
     FM270200 VRB03KT P6SM SCT250
     FM270800 00000KT 3SM -DZ BR OVC015
     FM271200 VRB03KT P6SM SCT015 BKN250
     FM271600 21007KT P6SM SCT025 BKN050=

USA.gov is the U.S. government's official web portal to all federal, state and local government web resources and services.